Rayong, Thailand

10:13 PM ICT on February 13, 2016 (GMT +0700)
Nhong Yai In | | Change Station
CLOSE
Current Station
Personal Weather Station
Location: Phe, Rayong
Elevation: 26 ft
Nearby Weather Stations

Elev 26 ft 12.62 °N, 101.40 °E | Updated 16 seconds ago

Mist
Mist
78.0 °F
Feels Like 80 °F
N
0.0
Wind Variable Wind from SW
Gusts 0.0 mph

Today
High -- | Low -- °F
--% Chance of Precip.
Yesterday
High -- | Low -- °F
Precip. -- in
Pressure 29.86 in
Visibility 1.9 miles
Clouds
Heat Index 80 °F
Dew Point 66 °F
Humidity 67%
Rainfall 0.00 in
Snow Depth Not available.
6:37 AM 6:20 PM
Waxing Crescent, 31% visible
METAR VTBU 131500Z 14002KT 3000 BR NSC 26/22 Q1011 A2987 NOSIG
Pressure 29.86 in
Visibility 1.9 miles
Clouds
Heat Index 80 °F
Dew Point 66 °F
Humidity 67%
Rainfall 0.00 in
Snow Depth Not available.
6:37 AM 6:20 PM
Waxing Crescent, 31% visible
METAR VTBU 131500Z 14002KT 3000 BR NSC 26/22 Q1011 A2987 NOSIG

10-Day Weather Forecast

No radar image for this location.
×

Almanac

Astronomy

Feb. 13, 2016 Rise Set
Actual Time
Civil Twilight
Nautical Twilight
Astronomical Twilight
Moon
Length of Visible Light
Length of Day
Tomorrow will be .
, % of the Moon is Illuminated

Today's Extremes

Country Highs Country Lows

Community

WunderPhotos

Upload Photos

1,892,575 photos uploaded!

WunderBlog® & News

Nearby

Air Quality

  Air Quality AQ Index Pollutant
Not available.

Snow Depth

Station Depth Elevation

Earthquake Activity

City Distance Mag. Time & Date
Minimum magnitude displayed is 2.5.

Coastal Water Temperatures

Place Temperature

Stations

Nearby Weather Stations

Station Location Temp. Windchill Dew Point Humidity Wind Precip. Elev Updated Type